Time;durP1;ratioP1;P1;durP2;ratioP2;P2;SDS_P1;SDS_P2;PMS_P1;PMS_P2;Temp;Humidity;BMP_temperature;BMP_pressure;BME280_temperature;BME280_humidity;BME280_pressure;Samples;Min_cycle;Max_cycle;Signal;HPM_P1;HPM_P2
2023/05/02 00:00:54;;;;;;;9.57;6.35;;;10.00;99.90;;;;;;7608266;19;20022;-78
2023/05/02 00:03:26;;;;;;;9.57;7.10;;;10.00;99.90;;;;;;7604011;19;20025;-77
2023/05/02 00:05:59;;;;;;;9.43;6.15;;;9.90;99.90;;;;;;7596731;19;20018;-76
2023/05/02 00:08:32;;;;;;;8.63;5.70;;;9.90;99.90;;;;;;7581332;19;21047;-77
2023/05/02 00:11:04;;;;;;;11.25;7.32;;;9.90;99.90;;;;;;7588330;19;20018;-78
2023/05/02 00:13:37;;;;;;;11.15;7.10;;;10.00;99.90;;;;;;7599357;19;20014;-78
2023/05/02 00:16:10;;;;;;;13.05;6.82;;;9.90;99.90;;;;;;7602593;19;20014;-76
2023/05/02 00:18:42;;;;;;;14.57;9.67;;;10.00;99.90;;;;;;7590085;19;20014;-75
2023/05/02 00:21:14;;;;;;;7.68;5.95;;;9.90;99.90;;;;;;7601692;19;20030;-78
2023/05/02 00:23:47;;;;;;;8.70;6.55;;;10.00;99.90;;;;;;7587024;19;20025;-76
2023/05/02 00:26:20;;;;;;;8.00;6.40;;;10.00;99.90;;;;;;7593845;19;20018;-77
2023/05/02 00:28:52;;;;;;;8.43;6.50;;;10.00;99.90;;;;;;7595167;19;20081;-78
2023/05/02 00:31:24;;;;;;;10.65;6.45;;;10.00;99.90;;;;;;7594357;19;20537;-79
2023/05/02 00:33:57;;;;;;;8.15;6.38;;;9.90;99.90;;;;;;7601446;19;20056;-78
2023/05/02 00:36:29;;;;;;;8.05;5.55;;;9.90;99.90;;;;;;7599271;19;20014;-78
2023/05/02 00:39:01;;;;;;;8.35;5.90;;;9.90;99.90;;;;;;7602577;19;20010;-77
2023/05/02 00:41:33;;;;;;;6.78;4.80;;;9.90;99.90;;;;;;7591873;19;20958;-77
2023/05/02 00:44:06;;;;;;;8.63;5.38;;;10.00;99.90;;;;;;7584264;19;20030;-77
2023/05/02 00:46:38;;;;;;;7.63;5.47;;;9.90;99.90;;;;;;7593528;19;20569;-76
2023/05/02 00:49:11;;;;;;;8.93;4.93;;;9.90;99.90;;;;;;7588134;19;20019;-79
2023/05/02 00:51:43;;;;;;;5.63;4.97;;;9.90;99.90;;;;;;7576399;19;20048;-77
2023/05/02 00:54:15;;;;;;;7.35;4.57;;;9.90;99.90;;;;;;7585582;19;20492;-77
2023/05/02 00:56:48;;;;;;;6.93;5.10;;;9.90;99.90;;;;;;7577810;19;20015;-77
2023/05/02 00:59:20;;;;;;;7.28;5.20;;;9.90;99.90;;;;;;7593972;19;20349;-78
2023/05/02 01:02:20;;;;;;;8.48;5.68;;;9.70;99.90;;;;;;7581649;19;22093;-78
2023/05/02 01:05:09;;;;;;;7.30;4.97;;;9.70;99.90;;;;;;7600817;19;20014;-78
2023/05/02 01:07:53;;;;;;;6.57;4.75;;;9.70;99.90;;;;;;7579530;19;20396;-79
2023/05/02 01:11:00;;;;;;;6.30;4.65;;;9.70;99.90;;;;;;7584337;19;20014;-79
2023/05/02 01:13:34;;;;;;;6.15;4.90;;;9.60;99.90;;;;;;7578692;19;20014;-79
2023/05/02 01:16:10;;;;;;;7.57;5.07;;;9.60;99.90;;;;;;7573490;19;20079;-79
2023/05/02 01:18:44;;;;;;;8.75;5.55;;;9.60;99.90;;;;;;7587403;19;20021;-77
2023/05/02 01:21:16;;;;;;;8.32;5.45;;;9.60;99.90;;;;;;7581626;19;20026;-76
2023/05/02 01:24:47;;;;;;;6.70;5.13;;;9.60;99.90;;;;;;7597511;19;20046;-79
2023/05/02 01:27:35;;;;;;;6.72;4.82;;;9.60;99.90;;;;;;7590466;19;20023;-76
2023/05/02 01:30:11;;;;;;;9.02;5.60;;;9.60;99.90;;;;;;7568878;19;20018;-77
2023/05/02 01:32:46;;;;;;;8.63;6.03;;;9.60;99.90;;;;;;7595641;19;20014;-78
2023/05/02 01:35:20;;;;;;;11.25;7.40;;;9.50;99.90;;;;;;7584588;19;20033;-79
2023/05/02 01:37:54;;;;;;;8.48;5.82;;;9.40;99.90;;;;;;7589932;19;20048;-79
2023/05/02 01:40:28;;;;;;;12.23;6.70;;;9.40;99.90;;;;;;7574926;19;20140;-78
2023/05/02 01:43:04;;;;;;;8.23;5.53;;;9.40;99.90;;;;;;7594947;19;20018;-78
2023/05/02 01:45:38;;;;;;;7.30;5.70;;;9.30;99.90;;;;;;7588764;19;20018;-79
2023/05/02 01:48:11;;;;;;;7.57;5.65;;;9.30;99.90;;;;;;7577848;19;20018;-78
2023/05/02 01:50:45;;;;;;;6.18;5.07;;;9.40;99.90;;;;;;7594043;19;20018;-78
2023/05/02 01:53:18;;;;;;;7.82;5.70;;;9.40;99.90;;;;;;7575565;19;20010;-78
2023/05/02 01:55:52;;;;;;;8.18;5.72;;;9.40;99.90;;;;;;7594454;19;20026;-78
2023/05/02 01:58:28;;;;;;;7.25;5.55;;;9.30;99.90;;;;;;7601698;19;20018;-79
2023/05/02 02:01:01;;;;;;;9.23;6.97;;;9.30;99.90;;;;;;7613947;19;20082;-79
2023/05/02 02:03:36;;;;;;;6.97;5.15;;;9.20;99.90;;;;;;7612196;19;20015;-79
2023/05/02 02:06:09;;;;;;;7.93;5.25;;;9.30;99.90;;;;;;7609449;19;20010;-78
2023/05/02 02:08:41;;;;;;;8.48;5.40;;;9.30;99.90;;;;;;7593250;19;20019;-78
2023/05/02 02:11:23;;;;;;;8.27;5.13;;;9.20;99.90;;;;;;7589206;19;20025;-78
2023/05/02 02:14:05;;;;;;;11.27;6.30;;;9.30;99.90;;;;;;7599960;19;20022;-77
2023/05/02 02:16:40;;;;;;;7.85;6.47;;;9.30;99.90;;;;;;7596849;19;20354;-78
2023/05/02 02:19:14;;;;;;;6.72;5.38;;;9.20;99.90;;;;;;7600703;19;20615;-77
2023/05/02 02:21:49;;;;;;;7.05;5.43;;;9.20;99.90;;;;;;7611387;19;20022;-77
2023/05/02 02:24:22;;;;;;;8.05;6.32;;;9.10;99.90;;;;;;7609639;19;20034;-76
2023/05/02 02:26:54;;;;;;;10.48;6.03;;;9.20;99.90;;;;;;7599252;19;20018;-78
2023/05/02 02:29:27;;;;;;;7.32;5.10;;;9.20;99.90;;;;;;7589969;19;20030;-80
2023/05/02 02:31:59;;;;;;;6.25;5.13;;;9.20;99.90;;;;;;7596886;19;20018;-80
2023/05/02 02:34:31;;;;;;;9.88;5.60;;;9.30;99.90;;;;;;7599176;19;22139;-78
2023/05/02 02:37:17;;;;;;;7.95;5.43;;;9.30;99.90;;;;;;7604229;19;20011;-77
2023/05/02 02:39:58;;;;;;;8.43;6.10;;;9.20;99.90;;;;;;7601673;19;21146;-77
2023/05/02 02:42:43;;;;;;;8.02;6.15;;;9.10;99.90;;;;;;7592086;19;20488;-78
2023/05/02 02:45:27;;;;;;;6.80;5.13;;;9.10;99.90;;;;;;7600563;19;20106;-77
2023/05/02 02:48:09;;;;;;;;;;;9.20;99.90;;;;;;7604314;19;20508;-78
2023/05/02 02:51:08;;;;;;;9.60;5.80;;;9.30;99.90;;;;;;7567360;19;19919;-78
2023/05/02 02:53:50;;;;;;;5.25;4.55;;;9.20;99.90;;;;;;7595753;19;20021;-76
2023/05/02 02:56:28;;;;;;;8.75;5.38;;;9.20;99.90;;;;;;7594764;19;20026;-76
2023/05/02 02:59:11;;;;;;;10.48;6.68;;;9.20;99.90;;;;;;7579003;19;20010;-76
2023/05/02 03:01:51;;;;;;;6.93;4.95;;;9.20;99.90;;;;;;7599423;19;20018;-78
2023/05/02 03:04:25;;;;;;;6.75;5.18;;;9.20;99.90;;;;;;7601011;19;20151;-77
2023/05/02 03:06:59;;;;;;;6.75;5.35;;;9.20;99.90;;;;;;7597709;19;20014;-77
2023/05/02 03:09:46;;;;;;;8.48;5.88;;;9.20;99.90;;;;;;7588491;19;20488;-77
2023/05/02 03:12:25;;;;;;;8.88;4.97;;;9.20;99.90;;;;;;7585722;19;20014;-77
2023/05/02 03:15:13;;;;;;;7.45;5.82;;;9.30;99.90;;;;;;7603030;19;20014;-80
2023/05/02 03:17:47;;;;;;;7.47;5.70;;;9.30;99.90;;;;;;7593114;19;20014;-78
2023/05/02 03:20:20;;;;;;;8.15;5.65;;;9.30;99.90;;;;;;7586270;19;20015;-78
2023/05/02 03:22:52;;;;;;;8.50;5.55;;;9.30;99.90;;;;;;7597784;19;20054;-78
2023/05/02 03:25:24;;;;;;;8.38;5.30;;;9.30;99.90;;;;;;7583886;19;20026;-77
2023/05/02 03:27:57;;;;;;;7.13;6.07;;;9.30;99.90;;;;;;7590228;19;20962;-78
2023/05/02 03:30:29;;;;;;;11.63;5.93;;;9.30;99.90;;;;;;7591413;19;20014;-77
2023/05/02 03:33:03;;;;;;;10.50;6.25;;;9.20;99.90;;;;;;7578752;19;20470;-76
2023/05/02 03:35:36;;;;;;;7.30;4.95;;;9.20;99.90;;;;;;7586914;19;22171;-77
2023/05/02 03:38:08;;;;;;;7.45;5.60;;;9.20;99.90;;;;;;7586074;19;20495;-77
2023/05/02 03:40:41;;;;;;;7.43;5.07;;;9.10;99.90;;;;;;7597376;19;20025;-78
2023/05/02 03:43:15;;;;;;;7.18;5.03;;;9.20;99.90;;;;;;7598945;19;20021;-79
2023/05/02 03:45:47;;;;;;;6.17;4.93;;;9.30;99.90;;;;;;7599993;19;20348;-77
2023/05/02 03:48:21;;;;;;;6.83;5.00;;;9.30;99.90;;;;;;7589885;19;20419;-79
2023/05/02 03:50:54;;;;;;;6.45;4.72;;;9.20;99.90;;;;;;7577910;19;20021;-78
2023/05/02 03:53:26;;;;;;;11.13;5.75;;;9.20;99.90;;;;;;7582814;19;20315;-79
2023/05/02 03:56:01;;;;;;;8.02;5.35;;;9.10;99.90;;;;;;7594221;19;21357;-78
2023/05/02 03:58:46;;;;;;;7.18;4.85;;;9.10;99.90;;;;;;7595450;19;20086;-78
2023/05/02 04:01:20;;;;;;;7.50;5.18;;;9.10;99.90;;;;;;7566577;19;20105;-78
2023/05/02 04:03:54;;;;;;;9.40;5.88;;;9.10;99.90;;;;;;7575734;19;20038;-77
2023/05/02 04:06:30;;;;;;;9.40;5.65;;;9.10;99.90;;;;;;7561821;19;20953;-78
2023/05/02 04:09:06;;;;;;;8.20;6.13;;;9.10;99.90;;;;;;7582703;19;20074;-78
2023/05/02 04:11:56;;;;;;;8.77;6.13;;;9.10;99.90;;;;;;7591438;19;20011;-79
2023/05/02 04:14:28;;;;;;;8.02;5.97;;;9.10;99.90;;;;;;7554098;19;21156;-78
2023/05/02 04:17:01;;;;;;;11.05;7.15;;;9.00;99.90;;;;;;7565668;19;20015;-79
2023/05/02 04:19:44;;;;;;;7.00;5.50;;;9.00;99.90;;;;;;7550870;19;20014;-77
2023/05/02 04:22:17;;;;;;;;;;;9.00;99.90;;;;;;7567732;19;20022;-78
2023/05/02 04:24:55;;;;;;;10.45;6.40;;;9.00;99.90;;;;;;7569156;19;21885;-78
2023/05/02 04:27:29;;;;;;;9.60;6.15;;;9.00;99.90;;;;;;7580453;19;20022;-77
2023/05/02 04:30:02;;;;;;;8.73;6.27;;;9.00;99.90;;;;;;7576103;19;20015;-77
2023/05/02 04:32:35;;;;;;;7.78;5.72;;;9.00;99.90;;;;;;7559080;19;20027;-76
2023/05/02 04:35:09;;;;;;;10.38;6.40;;;9.00;99.90;;;;;;7526373;19;20049;-76
2023/05/02 04:37:43;;;;;;;9.50;6.53;;;9.00;99.90;;;;;;7547952;19;20719;-76
2023/05/02 04:40:15;;;;;;;10.27;6.43;;;9.10;99.90;;;;;;7592480;19;21194;-79
2023/05/02 04:42:50;;;;;;;7.88;6.25;;;9.00;99.90;;;;;;7551877;19;20010;-75
2023/05/02 04:45:25;;;;;;;10.40;6.75;;;9.00;99.90;;;;;;7550589;19;20014;-75
2023/05/02 04:47:58;;;;;;;7.85;6.03;;;9.10;99.90;;;;;;7560874;19;20011;-75
2023/05/02 04:50:31;;;;;;;8.60;6.20;;;9.20;99.90;;;;;;7538660;19;20015;-76
2023/05/02 04:53:03;;;;;;;7.38;5.85;;;9.20;99.90;;;;;;7541737;19;20025;-75
2023/05/02 04:55:36;;;;;;;9.20;6.22;;;9.20;99.90;;;;;;7560708;19;20105;-75
2023/05/02 04:58:09;;;;;;;10.67;6.03;;;9.20;99.90;;;;;;7518682;19;20014;-75
2023/05/02 05:00:42;;;;;;;8.47;6.67;;;9.20;99.90;;;;;;7526930;19;20493;-77
2023/05/02 05:03:14;;;;;;;12.55;7.25;;;9.20;99.90;;;;;;7571926;19;20015;-78
2023/05/02 05:05:47;;;;;;;8.40;6.60;;;9.20;99.90;;;;;;7528242;19;20700;-75
2023/05/02 05:08:21;;;;;;;10.73;7.57;;;9.30;99.90;;;;;;7551261;19;20021;-76
2023/05/02 05:10:54;;;;;;;14.37;7.53;;;9.30;99.90;;;;;;7563241;19;20014;-75
2023/05/02 05:13:28;;;;;;;10.73;6.15;;;9.40;99.90;;;;;;7551764;19;20953;-76
2023/05/02 05:16:00;;;;;;;9.85;6.35;;;9.40;99.90;;;;;;7538413;19;20997;-77
2023/05/02 05:18:39;;;;;;;6.45;5.68;;;9.40;99.90;;;;;;7508866;19;21020;-78
2023/05/02 05:21:26;;;;;;;11.48;7.00;;;9.50;99.90;;;;;;7546815;19;20018;-77
2023/05/02 05:24:11;;;;;;;8.75;6.13;;;9.50;99.90;;;;;;7530511;19;20365;-75
2023/05/02 05:26:43;;;;;;;7.60;5.05;;;9.60;99.90;;;;;;7560237;19;20517;-77
2023/05/02 05:29:17;;;;;;;8.10;5.65;;;9.50;99.90;;;;;;7548056;19;20018;-76
2023/05/02 05:31:50;;;;;;;9.05;6.00;;;9.60;99.90;;;;;;7541574;19;20126;-78
2023/05/02 05:34:24;;;;;;;11.35;6.68;;;9.60;99.90;;;;;;7532435;19;20018;-76
2023/05/02 05:37:00;;;;;;;7.50;5.53;;;9.60;99.90;;;;;;7593814;19;20014;-76
2023/05/02 05:39:33;;;;;;;9.70;6.28;;;9.60;99.90;;;;;;7582224;19;20106;-76
2023/05/02 05:42:08;;;;;;;9.10;5.68;;;9.60;99.90;;;;;;7590104;19;20026;-76
2023/05/02 05:44:41;;;;;;;6.65;4.85;;;9.60;99.90;;;;;;7583661;19;20040;-77
2023/05/02 05:47:21;;;;;;;12.32;6.75;;;9.60;99.90;;;;;;7592194;19;20779;-76
2023/05/02 05:49:55;;;;;;;6.75;5.43;;;9.60;99.90;;;;;;7560062;19;20011;-75
2023/05/02 05:52:32;;;;;;;6.88;5.53;;;9.60;99.90;;;;;;7579441;19;20021;-76
2023/05/02 05:55:06;;;;;;;7.88;5.53;;;9.70;99.90;;;;;;7580597;19;20099;-76
2023/05/02 05:57:39;;;;;;;8.25;5.43;;;9.70;99.90;;;;;;7587601;19;20758;-76
2023/05/02 06:00:13;;;;;;;8.30;5.38;;;9.70;99.90;;;;;;7587308;19;20014;-76
2023/05/02 06:02:52;;;;;;;10.18;5.55;;;9.80;99.90;;;;;;7593593;19;20051;-77
2023/05/02 06:05:31;;;;;;;6.85;5.60;;;9.80;99.90;;;;;;7593118;19;20022;-76
2023/05/02 06:08:04;;;;;;;11.82;5.97;;;9.80;99.90;;;;;;7586739;19;20022;-76
2023/05/02 06:10:36;;;;;;;12.77;6.13;;;9.90;99.90;;;;;;7580851;19;20014;-75
2023/05/02 06:13:08;;;;;;;7.90;5.55;;;9.90;99.90;;;;;;7590053;19;20048;-76
2023/05/02 06:15:44;;;;;;;7.93;5.60;;;10.00;99.90;;;;;;7570641;19;20491;-75
2023/05/02 06:18:17;;;;;;;8.50;5.60;;;10.00;99.90;;;;;;7584791;19;20519;-77
2023/05/02 06:20:49;;;;;;;8.93;5.65;;;10.10;99.90;;;;;;7560328;19;20017;-76
2023/05/02 06:23:21;;;;;;;7.05;5.78;;;10.10;99.90;;;;;;7581934;19;20029;-76
2023/05/02 06:25:59;;;;;;;6.78;5.63;;;10.20;99.90;;;;;;7565437;19;20010;-76
2023/05/02 06:28:31;;;;;;;8.63;5.80;;;10.20;99.90;;;;;;7576588;19;20026;-76
2023/05/02 06:31:04;;;;;;;11.20;5.63;;;10.20;99.90;;;;;;7568328;19;20011;-76
2023/05/02 06:33:37;;;;;;;8.23;5.50;;;10.20;99.90;;;;;;7560365;19;20523;-76
2023/05/02 06:36:09;;;;;;;9.02;5.40;;;10.30;99.90;;;;;;7573311;19;20060;-77
2023/05/02 06:38:42;;;;;;;8.43;5.78;;;10.40;99.90;;;;;;7573635;19;20010;-77
2023/05/02 06:41:14;;;;;;;8.73;5.60;;;10.60;99.90;;;;;;7575406;19;20542;-77
2023/05/02 06:43:49;;;;;;;7.75;6.03;;;10.60;99.90;;;;;;7576372;19;22076;-75
2023/05/02 06:46:21;;;;;;;7.70;6.18;;;10.70;99.90;;;;;;7593979;19;20025;-76
2023/05/02 06:48:53;;;;;;;11.45;6.45;;;10.70;99.90;;;;;;7575864;19;20025;-75
2023/05/02 06:51:26;;;;;;;8.75;6.38;;;10.80;99.90;;;;;;7567986;19;20014;-76
2023/05/02 06:53:59;;;;;;;11.77;6.70;;;10.80;99.90;;;;;;7577714;19;20589;-75
2023/05/02 06:56:31;;;;;;;7.05;6.00;;;10.90;99.90;;;;;;7576943;19;20025;-74
2023/05/02 06:59:04;;;;;;;7.82;5.93;;;10.90;99.90;;;;;;7590632;19;20014;-76
2023/05/02 07:01:36;;;;;;;9.25;6.50;;;10.90;99.90;;;;;;7588200;19;20015;-78
2023/05/02 07:04:08;;;;;;;6.65;5.70;;;11.00;99.90;;;;;;7593761;19;20056;-78
2023/05/02 07:06:41;;;;;;;8.82;6.18;;;11.00;99.90;;;;;;7590191;19;21006;-77
2023/05/02 07:09:13;;;;;;;8.00;6.63;;;11.00;99.90;;;;;;7574829;19;20038;-75
2023/05/02 07:11:45;;;;;;;8.40;6.55;;;11.20;99.90;;;;;;7596633;19;20018;-78
2023/05/02 07:14:17;;;;;;;9.35;6.35;;;11.30;99.90;;;;;;7593071;19;20014;-78
2023/05/02 07:16:49;;;;;;;9.52;6.80;;;11.50;99.90;;;;;;7594104;19;20022;-77
2023/05/02 07:19:21;;;;;;;10.32;6.55;;;11.60;99.90;;;;;;7584416;19;20600;-77
2023/05/02 07:21:53;;;;;;;9.60;6.93;;;11.70;99.90;;;;;;7577187;19;20018;-77
2023/05/02 07:24:25;;;;;;;9.40;6.60;;;11.70;99.90;;;;;;7563568;19;20037;-77
2023/05/02 07:26:58;;;;;;;10.10;7.45;;;11.90;99.90;;;;;;7565482;19;20006;-75
2023/05/02 07:29:30;;;;;;;7.40;6.05;;;11.90;99.90;;;;;;7579830;19;20019;-74
2023/05/02 07:32:03;;;;;;;10.38;6.45;;;11.90;99.90;;;;;;7579989;19;20010;-77
2023/05/02 07:34:35;;;;;;;9.45;6.60;;;12.00;99.90;;;;;;7580547;19;20007;-77
2023/05/02 07:37:07;;;;;;;9.77;6.60;;;12.00;99.90;;;;;;7571766;19;20014;-76
2023/05/02 07:39:40;;;;;;;11.02;8.05;;;12.20;99.90;;;;;;7574344;19;20053;-78
2023/05/02 07:42:12;;;;;;;9.60;7.45;;;12.20;99.90;;;;;;7589511;19;20475;-76
2023/05/02 07:44:44;;;;;;;10.35;6.60;;;12.20;99.90;;;;;;7562246;19;20010;-76
2023/05/02 07:47:16;;;;;;;12.10;7.78;;;12.30;99.90;;;;;;7577299;19;20548;-76
2023/05/02 07:49:52;;;;;;;9.32;6.90;;;12.30;99.90;;;;;;7570802;19;20396;-76
2023/05/02 07:52:25;;;;;;;10.88;7.18;;;12.40;99.90;;;;;;7582904;19;20580;-77
2023/05/02 07:54:57;;;;;;;10.75;7.28;;;12.50;99.90;;;;;;7578420;19;20014;-76
2023/05/02 07:57:29;;;;;;;9.52;7.40;;;12.50;99.90;;;;;;7588110;19;20376;-75
2023/05/02 08:00:02;;;;;;;8.95;6.60;;;12.50;99.90;;;;;;7557888;19;20014;-76
2023/05/02 08:02:45;;;;;;;11.15;7.85;;;12.40;99.90;;;;;;7581724;19;20018;-76
2023/05/02 08:05:17;;;;;;;;;;;12.40;99.90;;;;;;7557613;19;20078;-77
2023/05/02 08:07:50;;;;;;;12.07;8.25;;;12.40;99.90;;;;;;7560632;19;19922;-77
2023/05/02 08:10:23;;;;;;;11.55;8.50;;;12.50;99.90;;;;;;7550277;19;20019;-76
2023/05/02 08:12:55;;;;;;;15.80;8.98;;;12.40;99.90;;;;;;7554203;19;20006;-76
2023/05/02 08:15:29;;;;;;;11.18;8.75;;;12.30;99.90;;;;;;7562794;19;20694;-77
2023/05/02 08:18:01;;;;;;;11.13;8.85;;;12.30;99.90;;;;;;7573963;19;20018;-76
2023/05/02 08:20:33;;;;;;;10.70;8.10;;;12.30;99.90;;;;;;7584193;19;20074;-77
2023/05/02 08:23:05;;;;;;;10.25;8.50;;;12.40;99.90;;;;;;7589863;19;20011;-76
2023/05/02 08:25:38;;;;;;;14.63;9.35;;;12.50;99.90;;;;;;7553738;19;20022;-76
2023/05/02 08:28:10;;;;;;;15.68;9.57;;;12.60;99.90;;;;;;7546760;19;20123;-76
2023/05/02 08:30:44;;;;;;;12.75;9.88;;;12.70;99.90;;;;;;7581395;19;20014;-76
2023/05/02 08:33:16;;;;;;;12.35;9.43;;;12.80;99.90;;;;;;7557692;19;20045;-76
2023/05/02 08:35:48;;;;;;;10.98;8.55;;;12.90;99.90;;;;;;7574632;19;20061;-76
2023/05/02 08:38:21;;;;;;;11.17;9.27;;;12.90;99.90;;;;;;7579177;19;24276;-76
2023/05/02 08:40:53;;;;;;;11.38;9.43;;;13.00;99.90;;;;;;7569575;19;20029;-76
2023/05/02 08:43:25;;;;;;;12.98;8.88;;;12.90;99.90;;;;;;7582930;19;20018;-76
2023/05/02 08:46:00;;;;;;;17.02;9.07;;;13.10;99.90;;;;;;7580676;19;21190;-76
2023/05/02 08:48:35;;;;;;;12.93;8.68;;;13.10;99.90;;;;;;7574662;19;20601;-76
2023/05/02 08:51:10;;;;;;;12.82;8.38;;;13.10;99.90;;;;;;7566788;19;20508;-75
2023/05/02 08:53:43;;;;;;;11.88;8.38;;;13.20;99.90;;;;;;7571853;19;20048;-75
2023/05/02 08:56:15;;;;;;;13.43;8.98;;;13.30;99.90;;;;;;7535450;19;20318;-75
2023/05/02 08:58:47;;;;;;;13.43;9.68;;;13.50;99.90;;;;;;7564061;19;20775;-75
2023/05/02 09:01:23;;;;;;;14.32;10.63;;;13.50;99.90;;;;;;7566921;19;20094;-76
2023/05/02 09:03:57;;;;;;;15.65;9.52;;;13.40;99.90;;;;;;7570496;19;20021;-76
2023/05/02 09:06:30;;;;;;;12.25;9.80;;;13.60;99.90;;;;;;7557285;19;20072;-75
2023/05/02 09:09:02;;;;;;;13.52;9.75;;;13.70;99.90;;;;;;7565773;19;20018;-75
2023/05/02 09:11:35;;;;;;;12.15;9.30;;;13.90;99.90;;;;;;7576327;19;20034;-76
2023/05/02 09:14:15;;;;;;;14.23;9.00;;;13.90;99.90;;;;;;7575886;19;20014;-75
2023/05/02 09:16:47;;;;;;;11.90;8.70;;;14.00;99.90;;;;;;7555357;19;20025;-74
2023/05/02 09:19:27;;;;;;;12.55;8.98;;;14.00;99.90;;;;;;7555255;19;20014;-76
2023/05/02 09:22:00;;;;;;;17.02;9.00;;;14.10;99.90;;;;;;7577053;19;20015;-75
2023/05/02 09:24:33;;;;;;;13.40;9.97;;;14.30;99.90;;;;;;7553436;19;20014;-77
2023/05/02 09:27:05;;;;;;;14.63;10.40;;;14.30;99.90;;;;;;7574805;19;20408;-77
2023/05/02 09:29:39;;;;;;;14.77;10.00;;;14.40;99.90;;;;;;7586089;19;21382;-77
2023/05/02 09:32:11;;;;;;;15.07;9.90;;;14.50;99.90;;;;;;7564428;19;20479;-77
2023/05/02 09:35:03;;;;;;;12.25;9.48;;;14.40;99.90;;;;;;7567339;19;20021;-75
2023/05/02 09:37:35;;;;;;;12.75;10.10;;;14.30;99.90;;;;;;7565620;19;20019;-77
2023/05/02 09:40:08;;;;;;;14.52;10.32;;;14.30;99.90;;;;;;7560839;19;20014;-77
2023/05/02 09:42:41;;;;;;;13.27;9.47;;;14.20;99.90;;;;;;7581438;19;20036;-78
2023/05/02 09:45:21;;;;;;;12.88;10.50;;;14.20;99.90;;;;;;7572286;19;20095;-75
2023/05/02 09:47:53;;;;;;;14.30;9.18;;;14.10;99.90;;;;;;7565035;19;20015;-76
2023/05/02 09:50:33;;;;;;;12.82;10.75;;;14.10;99.90;;;;;;7579141;19;20697;-78
2023/05/02 09:53:08;;;;;;;13.32;10.25;;;14.10;99.90;;;;;;7578599;19;20673;-75
2023/05/02 09:55:40;;;;;;;16.85;10.15;;;14.10;99.90;;;;;;7587561;19;20021;-76
2023/05/02 09:58:21;;;;;;;15.55;10.77;;;14.20;99.90;;;;;;7580783;19;20048;-77
2023/05/02 10:00:53;;;;;;;12.93;9.52;;;14.00;99.90;;;;;;7566719;19;20015;-77
2023/05/02 10:03:28;;;;;;;13.20;9.02;;;14.10;99.90;;;;;;7574353;19;20030;-76
2023/05/02 10:06:00;;;;;;;13.82;9.60;;;14.10;99.90;;;;;;7558591;19;20546;-75
2023/05/02 10:08:33;;;;;;;12.57;9.50;;;14.10;99.90;;;;;;7574078;19;20022;-76
2023/05/02 10:11:07;;;;;;;11.55;8.63;;;14.10;99.90;;;;;;7566725;19;20010;-76
2023/05/02 10:13:42;;;;;;;11.15;9.13;;;14.20;99.90;;;;;;7562782;19;20090;-76
2023/05/02 10:16:22;;;;;;;12.90;9.05;;;14.10;99.90;;;;;;7573660;19;20019;-78
2023/05/02 10:19:02;;;;;;;10.98;8.60;;;14.10;99.90;;;;;;7563679;19;20017;-76
2023/05/02 10:21:35;;;;;;;11.32;8.80;;;14.20;99.90;;;;;;7568518;19;21503;-75
2023/05/02 10:24:08;;;;;;;12.20;9.07;;;14.30;99.90;;;;;;7577367;19;20019;-75
2023/05/02 10:26:42;;;;;;;12.52;9.80;;;14.30;99.90;;;;;;7571910;19;20048;-75
2023/05/02 10:29:14;;;;;;;14.00;10.30;;;14.40;99.90;;;;;;7570132;19;20094;-74
2023/05/02 10:31:48;;;;;;;13.67;9.97;;;14.40;99.90;;;;;;7584237;19;20095;-75
2023/05/02 10:34:21;;;;;;;13.48;9.30;;;14.40;99.90;;;;;;7574082;19;20018;-75
2023/05/02 10:37:00;;;;;;;13.80;8.98;;;14.50;99.90;;;;;;7576997;19;20006;-76
2023/05/02 10:39:32;;;;;;;12.68;9.75;;;14.60;99.90;;;;;;7568172;19;20018;-76
2023/05/02 10:42:05;;;;;;;11.80;9.02;;;14.80;99.90;;;;;;7577149;19;20013;-75
2023/05/02 10:44:40;;;;;;;16.17;9.00;;;14.90;99.90;;;;;;7589359;19;20026;-76
2023/05/02 10:47:20;;;;;;;11.98;8.55;;;15.00;99.90;;;;;;7571322;19;20025;-76
2023/05/02 10:49:54;;;;;;;11.00;8.95;;;14.90;99.90;;;;;;7582471;19;20074;-75
2023/05/02 10:52:36;;;;;;;12.35;8.13;;;15.00;99.90;;;;;;7568913;19;20561;-75
2023/05/02 10:55:16;;;;;;;10.68;8.40;;;15.10;99.90;;;;;;7561063;19;20026;-74
2023/05/02 10:57:59;;;;;;;10.77;7.95;;;15.00;99.90;;;;;;7571999;19;20960;-75
2023/05/02 11:00:32;;;;;;;12.25;7.85;;;14.90;99.90;;;;;;7562960;19;20078;-75
2023/05/02 11:03:05;;;;;;;12.15;8.40;;;14.80;99.90;;;;;;7590309;19;20016;-76
2023/05/02 11:06:04;;;;;;;12.43;9.07;;;14.80;99.90;;;;;;7589519;19;20656;-75
2023/05/02 11:08:36;;;;;;;10.73;7.95;;;14.80;99.90;;;;;;7573232;19;20030;-75
2023/05/02 11:11:43;;;;;;;11.15;9.27;;;14.80;99.90;;;;;;7594225;19;20018;-76
2023/05/02 11:14:31;;;;;;;10.85;8.70;;;14.80;98.50;;;;;;7567466;19;20206;-76
2023/05/02 11:17:03;;;;;;;12.98;8.43;;;14.90;99.90;;;;;;7587876;19;20018;-78
2023/05/02 11:19:44;;;;;;;10.50;8.35;;;14.80;99.90;;;;;;7542700;19;22230;-77
2023/05/02 11:22:16;;;;;;;12.32;8.55;;;14.90;99.90;;;;;;7510255;19;20018;-77
2023/05/02 11:24:50;;;;;;;13.13;8.98;;;14.90;99.80;;;;;;7537295;19;20048;-76
2023/05/02 11:27:28;;;;;;;;;;;14.90;99.90;;;;;;7544045;19;20026;-75
2023/05/02 11:30:04;;;;;;;11.05;8.30;;;14.80;99.90;;;;;;7523401;19;19930;-75
2023/05/02 11:32:43;;;;;;;10.90;8.40;;;14.90;99.90;;;;;;7553718;19;20018;-77
2023/05/02 11:35:22;;;;;;;10.07;8.43;;;14.90;99.90;;;;;;7536764;19;20023;-77
2023/05/02 11:37:56;;;;;;;12.60;8.32;;;14.70;99.90;;;;;;7534600;19;20070;-77
2023/05/02 11:40:30;;;;;;;11.23;8.82;;;14.70;99.90;;;;;;7527214;19;20078;-76
2023/05/02 11:43:13;;;;;;;14.38;9.55;;;14.50;99.90;;;;;;7553101;19;20029;-76
2023/05/02 11:45:45;;;;;;;14.83;11.50;;;14.30;99.90;;;;;;7554036;19;20023;-74
2023/05/02 11:48:20;;;;;;;17.45;11.35;;;14.10;99.90;;;;;;7552195;19;21027;-74
2023/05/02 11:50:57;;;;;;;15.10;10.98;;;13.80;99.90;;;;;;7565132;19;20101;-74
2023/05/02 11:53:30;;;;;;;14.23;8.95;;;13.50;99.90;;;;;;7520814;19;22155;-77
2023/05/02 11:56:04;;;;;;;11.47;7.90;;;13.50;99.90;;;;;;7527750;19;20018;-75
2023/05/02 11:58:36;;;;;;;7.63;6.40;;;13.20;99.90;;;;;;7519967;19;21472;-75
2023/05/02 12:01:14;;;;;;;9.27;6.90;;;13.10;99.90;;;;;;7567477;19;20014;-77
2023/05/02 12:03:48;;;;;;;17.30;9.00;;;13.00;99.90;;;;;;7578772;19;20017;-78
2023/05/02 12:06:21;;;;;;;12.45;8.95;;;12.90;99.90;;;;;;7561675;19;20014;-77
2023/05/02 12:09:08;;;;;;;14.17;9.67;;;12.60;99.90;;;;;;7530358;19;20021;-77
2023/05/02 12:11:41;;;;;;;15.20;10.73;;;12.70;99.90;;;;;;7542920;19;20025;-77
2023/05/02 12:14:13;;;;;;;13.43;10.10;;;12.70;99.90;;;;;;7571215;19;20500;-77
2023/05/02 12:16:45;;;;;;;12.75;9.18;;;12.80;99.90;;;;;;7526842;19;20022;-77
2023/05/02 12:19:18;;;;;;;11.82;8.15;;;12.90;99.90;;;;;;7559996;19;21607;-76
2023/05/02 12:21:50;;;;;;;11.73;9.43;;;12.90;99.90;;;;;;7565878;19;20014;-76
2023/05/02 12:24:22;;;;;;;12.70;10.27;;;12.80;99.90;;;;;;7563768;19;20022;-76
2023/05/02 12:27:12;;;;;;;17.10;10.82;;;12.80;99.90;;;;;;7533873;19;20018;-77
2023/05/02 12:29:46;;;;;;;16.95;10.10;;;13.00;99.90;;;;;;7571629;19;20017;-76
2023/05/02 12:32:32;;;;;;;12.77;10.48;;;13.10;99.90;;;;;;7568333;19;20155;-76
2023/05/02 12:35:21;;;;;;;11.18;9.18;;;13.20;99.90;;;;;;7526040;19;20011;-76
2023/05/02 12:37:57;;;;;;;13.85;10.30;;;13.30;99.90;;;;;;7528693;19;20175;-76
2023/05/02 12:40:30;;;;;;;16.42;10.23;;;13.40;99.90;;;;;;7558941;19;20029;-76
2023/05/02 12:43:06;;;;;;;15.57;9.77;;;13.40;99.90;;;;;;7562253;19;20029;-75
2023/05/02 12:45:38;;;;;;;13.07;9.35;;;13.40;99.90;;;;;;7497367;19;20025;-77
2023/05/02 12:48:17;;;;;;;12.82;9.60;;;13.40;99.90;;;;;;7513191;19;21045;-77
2023/05/02 12:50:50;;;;;;;12.43;9.98;;;13.20;99.90;;;;;;7513680;19;20347;-75
2023/05/02 12:53:42;;;;;;;14.33;10.17;;;13.20;99.90;;;;;;7556717;19;20589;-74
2023/05/02 12:56:15;;;;;;;13.55;10.00;;;13.40;99.90;;;;;;7583650;19;20018;-76
2023/05/02 12:58:48;;;;;;;13.90;10.55;;;13.50;99.90;;;;;;7568435;19;21022;-74
2023/05/02 13:01:20;;;;;;;14.50;10.02;;;13.40;99.90;;;;;;7552433;19;20018;-74
2023/05/02 13:03:52;;;;;;;16.77;10.27;;;13.50;99.90;;;;;;7567374;19;20284;-73
2023/05/02 13:06:25;;;;;;;15.90;10.77;;;13.60;99.90;;;;;;7568231;19;20006;-73
2023/05/02 13:08:57;;;;;;;13.63;9.93;;;13.80;99.90;;;;;;7543496;19;21894;-73
2023/05/02 13:11:29;;;;;;;15.25;9.45;;;13.80;99.90;;;;;;7563163;19;20026;-73
2023/05/02 13:14:04;;;;;;;13.25;9.23;;;13.80;99.90;;;;;;7562525;19;20007;-74
2023/05/02 13:16:36;;;;;;;10.48;8.35;;;14.00;99.90;;;;;;7530216;19;20362;-77
2023/05/02 13:19:09;;;;;;;10.07;7.68;;;14.20;99.90;;;;;;7537683;19;20018;-74
2023/05/02 13:21:41;;;;;;;11.90;7.72;;;14.20;99.90;;;;;;7573774;19;20014;-75
2023/05/02 13:24:13;;;;;;;10.25;7.43;;;14.20;99.90;;;;;;7575561;19;20022;-77
2023/05/02 13:26:46;;;;;;;11.07;7.30;;;14.20;99.90;;;;;;7555705;19;20105;-74